Other Surface Observations
Issued by NWS Missoula, MT

Home | Current Version | Previous Version | Text Only | Print | Product List | Glossary On
Versions: 1 2 3 4 5 6 7 8 9 10 11 12 13 14 15 16 17 18 19 20 21 22 23 24 25 26 27 28 29 30 31 32 33 34 35 36 37 38 39 40 41 42 43 44 45 46 47 48 49 50
000
SXUS55 KMSO 301113
OSOMSO
MONTANA AWOS SUMMARY
NATIONAL WEATHER SERVICE MISSOULA MT
512 AM MDT MON MAY 30 2016

Montana AWOS Reports

EKALAKA     |K97M 301055Z AUTO 12004KT 40SM 14/09 A2989 RMK AO1 T01390094
PLAINS      |KS34 301055Z AUTO 00000KT 25SM 10/04 A3006 RMK AO1 T01000039
SCOBEY      |K9S2 301055Z AUTO 00000KT 25SM 06/M01 A2989 RMK AO1 T00561005
LAUREL      |K6S8 301055Z AUTO 30004KT 40SM 11/08 A2999 RMK AO1 T01110078




USA.gov is the U.S. government's official web portal to all federal, state and local government web resources and services.